Озеро Шундоер

Карта отелей и гостиниц, располагающихся рядом с аэропортом Озеро Шундоер :

Озеро Шундоер Марий Эл 56° 44' 55.0788" N, 47° 17' 2.3388" E
Код аэродрома ИКАО
HFH6
Код аэродрома RU
ХФХ6
Координаты
N56.74863° E047.28398°
Превышение над уровнем моря
88
Основная полоса
07/25
Курс магнитный
071,3/251,3
Длина основной ВПП
20
Ширина основной ВПП
20
Покрытие основной ВПП
Твёрдое (бетон)
Освещение ВПП
Нет
Тип: 
Вертодром
Класс аэродрома: 
Принадлежность: 
ГА
Статус: 
Действующий
Сайт: 
E-mail аэродрома: 
Страна: 
Россия
Регион: 
Марий Эл
Город: 
Дополнительная информация: 
Оператор: нет данных.

Найти трансфер

С помощью этой формы Вы можете найти трансфер из аэропорта Озеро Шундоер в город, аэропорт или вокзал:

Карта места

Javascript is required to view this map.

Погода в аэропортах:

Авиационная погода в Уральске

Регион: 
Погода METAR: 
UARR 170530Z 22005MPS 3000 -SN BR SCT010 M15/M17 Q1013 R22/790136 TEMPO 1000 SN BR BKN003 RMK QFE756/1009
Время наблюдения
2021-01-17T05:30:00Z
Температура C
-15.0
Точка росы
-17.0
Направление ветра
220
Скорость ветра (узлы)
10
Метео видимость
1.86
Явления погоды
-SN BR
Условия полета
IFR
Аэропорт подробнее: 

Авиационная погода в Стамбуле

Регион: 
Погода METAR: 
LTFM 170550Z 36024KT 2000 SHSN BKN008 BKN020 M00/M01 Q1012 BECMG TL0620 6000 NSW TEMPO FM0630 1600 +SHSN RMK RWY17L 35023KT RWY34L 34024KT RWY16R 34021KT RWY36 36024KT RWY18 36024KT
Время наблюдения
2021-01-17T05:50:00Z
Температура C
0.0
Точка росы
-1.0
Направление ветра
360
Скорость ветра (узлы)
24
Метео видимость
1.24
Явления погоды
SHSN
Условия полета
IFR

Авиационная погода в Каяани

Регион: 
Погода METAR: 
EFKI 170550Z AUTO 27007KT 250V320 9999 -SHSN OVC003 M05/M05 Q1012
Время наблюдения
2021-01-17T05:50:00Z
Температура C
-5.0
Точка росы
-5.0
Направление ветра
270
Скорость ветра (узлы)
7
Метео видимость
6.21
Явления погоды
-SHSN
Условия полета
LIFR

Авиационная погода в Миккели

Регион: 
Погода METAR: 
EFMI 301050Z AUTO 11005KT 9999 -SHRASN OVC005 00/M01 Q1019
Время наблюдения
2020-11-30T10:50:00Z
Температура C
0.0
Точка росы
-1.0
Направление ветра
110
Скорость ветра (узлы)
5
Метео видимость
6.21
Явления погоды
-SHRA -SHSN
Условия полета
IFR